Time;durP1;ratioP1;P1;durP2;ratioP2;P2;SDS_P1;SDS_P2;PMS_P1;PMS_P2;Temp;Humidity;BMP_temperature;BMP_pressure;BME280_temperature;BME280_humidity;BME280_pressure;Samples;Min_cycle;Max_cycle;Signal;HPM_P1;HPM_P2
2023/03/15 00:00:11;;;;;;;10.48;7.25;;;;;;;8.48;46.33;98777.34;4991671;28;20443;-90
2023/03/15 00:02:36;;;;;;;11.20;8.50;;;;;;;7.70;46.46;98646.44;4990632;28;20488;-90
2023/03/15 00:05:02;;;;;;;12.65;8.10;;;;;;;8.49;46.83;98757.13;4991684;28;20019;-90
2023/03/15 00:07:28;;;;;;;10.50;8.45;;;;;;;8.51;46.60;98770.91;4991715;28;20038;-90
2023/03/15 00:09:54;;;;;;;10.98;8.00;;;;;;;8.51;46.93;98760.38;4991723;28;20488;-90
2023/03/15 00:12:23;;;;;;;15.05;8.32;;;;;;;8.11;46.65;98694.09;4991792;28;20037;-90
2023/03/15 00:14:49;;;;;;;12.23;8.10;;;;;;;8.47;46.81;98753.88;4991657;28;20092;-90
2023/03/15 00:17:15;;;;;;;11.65;8.23;;;;;;;7.67;47.33;98631.03;4991669;28;20462;-90
2023/03/15 00:19:40;;;;;;;8.82;7.60;;;;;;;7.79;47.16;98649.78;4995230;28;20030;-90
2023/03/15 00:22:05;;;;;;;9.43;7.60;;;;;;;7.59;47.30;98621.44;4995195;28;20392;-90
2023/03/15 00:24:31;;;;;;;13.23;8.77;;;;;;;7.54;47.32;98665.00;4995138;28;20593;-88
2023/03/15 00:26:56;;;;;;;11.88;8.65;;;;;;;7.47;47.47;98628.16;4995333;28;20026;-91
2023/03/15 00:29:22;;;;;;;10.50;7.93;;;;;;;8.27;47.67;98766.72;4993868;28;20113;-90
2023/03/15 00:31:47;;;;;;;11.63;7.50;;;;;;;7.82;47.64;98665.19;4995235;28;20072;-90
2023/03/15 00:34:12;;;;;;;10.40;7.82;;;;;;;8.12;47.96;98735.16;4995229;28;20027;-90
2023/03/15 00:36:42;;;;;;;12.07;7.65;;;;;;;7.96;48.03;98683.59;4995026;28;20032;-89
2023/03/15 00:39:08;;;;;;;9.90;7.55;;;;;;;6.93;48.53;98512.03;5010039;28;20065;-90
2023/03/15 00:41:33;;;;;;;10.65;7.85;;;;;;;7.79;48.58;98682.13;5010113;28;20054;-89
2023/03/15 00:43:59;;;;;;;13.27;7.60;;;;;;;7.05;48.17;98530.78;4995015;28;20467;-91
2023/03/15 00:46:24;;;;;;;9.05;7.40;;;;;;;7.76;48.78;98660.66;4994657;28;20492;-90
2023/03/15 00:48:50;;;;;;;10.30;7.35;;;;;;;7.30;48.91;98584.66;4994721;28;20033;-90
2023/03/15 00:51:20;;;;;;;9.88;7.55;;;;;;;7.56;49.17;98634.94;4994658;28;20026;-90
2023/03/15 00:53:46;;;;;;;11.40;7.55;;;;;;;7.14;49.12;98572.50;4994775;28;20022;-90
2023/03/15 00:56:15;;;;;;;11.80;7.82;;;;;;;7.63;49.28;98641.09;4994670;28;20503;-90
2023/03/15 00:58:40;;;;;;;11.30;8.07;;;;;;;7.93;49.46;98683.13;5009732;28;20029;-91
2023/03/15 01:01:17;;;;;;;9.18;7.90;;;;;;;7.81;49.29;98667.00;4994914;28;20034;-91
2023/03/15 01:03:44;;;;;;;9.10;7.35;;;;;;;7.13;49.20;98570.06;4993342;28;20030;-89
2023/03/15 01:06:18;;;;;;;8.80;7.55;;;;;;;7.83;50.15;98679.97;4994526;28;20495;-90
2023/03/15 01:08:44;;;;;;;9.82;7.47;;;;;;;7.83;49.34;98685.22;4994631;28;20487;-90
2023/03/15 01:11:14;;;;;;;10.40;7.95;;;;;;;7.80;49.64;98672.44;4993117;28;20036;-89
2023/03/15 01:13:39;;;;;;;15.55;8.50;;;;;;;6.61;49.98;98523.63;5009581;28;20022;-90
2023/03/15 01:16:06;;;;;;;10.55;7.65;;;;;;;7.24;50.06;98575.69;5009712;28;20164;-90
2023/03/15 01:18:32;;;;;;;9.32;8.10;;;;;;;7.17;50.26;98576.56;4994347;28;20510;-90
2023/03/15 01:20:58;;;;;;;11.95;7.97;;;;;;;7.71;50.14;98653.34;4994219;28;20023;-90
2023/03/15 01:23:24;;;;;;;9.80;7.68;;;;;;;7.70;49.92;98677.16;4994496;28;20101;-90
2023/03/15 01:25:49;;;;;;;10.05;7.97;;;;;;;7.26;50.19;98588.63;4994325;28;20097;-91
2023/03/15 01:28:15;;;;;;;10.00;8.38;;;;;;;6.99;50.99;98543.63;4994030;28;20053;-90
2023/03/15 01:30:48;;;;;;;9.07;7.90;;;;;;;7.10;51.21;98586.97;5008925;28;20052;-90
2023/03/15 01:33:13;;;;;;;11.93;9.13;;;;;;;6.86;50.88;98550.47;5009126;28;20507;-91
2023/03/15 01:35:39;;;;;;;14.48;8.88;;;;;;;6.90;51.08;98564.88;4993927;28;20084;-89
2023/03/15 01:38:04;;;;;;;11.85;8.32;;;;;;;6.71;51.72;98526.03;5008840;28;20081;-90
2023/03/15 01:40:30;;;;;;;10.35;8.45;;;;;;;7.08;51.26;98609.97;4993838;28;20538;-89
2023/03/15 01:43:01;;;;;;;10.68;8.48;;;;;;;7.29;51.14;98631.09;4993755;28;20109;-88
2023/03/15 01:45:54;;;;;;;11.05;9.20;;;;;;;7.32;51.69;98632.53;4993686;28;20029;-89
2023/03/15 01:48:23;;;;;;;13.77;9.20;;;;;;;7.17;51.21;98616.78;5008691;28;20037;-89
2023/03/15 01:50:50;;;;;;;9.68;8.38;;;;;;;7.03;51.73;98586.06;4993699;28;20104;-92
2023/03/15 01:53:16;;;;;;;11.75;8.15;;;;;;;7.04;50.98;98600.00;4993786;28;20589;-89
2023/03/15 01:55:41;;;;;;;12.43;8.45;;;;;;;6.78;50.97;98545.31;4993595;28;20049;-89
2023/03/15 01:58:09;;;;;;;12.07;9.15;;;;;;;6.79;51.36;98575.81;4993467;28;20030;-89
2023/03/15 02:00:35;;;;;;;13.07;8.63;;;;;;;7.05;51.67;98606.88;5008358;28;20128;-90
2023/03/15 02:03:16;;;;;;;11.10;8.45;;;;;;;7.49;51.45;98654.22;4993380;28;20026;-89
2023/03/15 02:05:53;;;;;;;15.50;9.23;;;;;;;7.13;51.49;98612.88;5008544;28;20038;-89
2023/03/15 02:08:24;;;;;;;13.90;8.68;;;;;;;7.13;50.97;98596.31;4992170;28;20110;-89
2023/03/15 02:10:55;;;;;;;11.80;8.93;;;;;;;7.51;51.21;98658.31;5008154;28;20554;-87
2023/03/15 02:13:23;;;;;;;14.05;9.13;;;;;;;7.13;50.47;98596.31;4993191;28;20324;-89
2023/03/15 02:15:52;;;;;;;10.57;8.15;;;;;;;7.46;51.10;98665.09;5008249;28;20030;-89
2023/03/15 02:18:18;;;;;;;9.63;8.23;;;;;;;6.96;50.97;98588.59;4993222;28;20565;-90
2023/03/15 02:20:56;;;;;;;13.05;8.05;;;;;;;7.47;51.93;98670.16;4993130;28;20011;-89
2023/03/15 02:23:22;;;;;;;12.80;8.50;;;;;;;7.20;51.28;98633.97;5008250;28;20026;-90
2023/03/15 02:26:21;;;;;;;11.70;8.60;;;;;;;7.08;51.08;98604.72;4992951;28;20064;-90
2023/03/15 02:28:48;;;;;;;12.90;8.60;;;;;;;7.45;51.25;98661.66;4991519;28;20065;-89
2023/03/15 02:31:14;;;;;;;11.27;9.20;;;;;;;7.07;51.13;98610.97;4993139;28;20027;-90
2023/03/15 02:33:56;;;;;;;10.68;8.48;;;;;;;7.38;51.92;98658.09;4993010;28;20112;-90
2023/03/15 02:36:27;;;;;;;11.88;9.00;;;;;;;7.05;51.40;98609.50;5007901;28;20022;-90
2023/03/15 02:38:53;;;;;;;12.20;9.00;;;;;;;6.94;51.00;98598.44;5007712;28;20030;-87
2023/03/15 02:41:35;;;;;;;15.85;10.02;;;;;;;6.62;52.02;98547.06;4991155;28;20026;-86
2023/03/15 02:44:07;;;;;;;13.73;8.88;;;;;;;6.73;51.60;98560.78;4992880;28;20019;-89
2023/03/15 02:46:33;;;;;;;10.95;9.18;;;;;;;6.71;51.35;98547.84;4992781;28;20495;-89
2023/03/15 02:48:59;;;;;;;11.05;8.30;;;;;;;6.39;50.89;98493.84;4991541;28;20109;-89
2023/03/15 02:51:27;;;;;;;12.70;9.07;;;;;;;7.35;51.51;98653.19;4992627;28;20058;-90
2023/03/15 02:53:53;;;;;;;12.98;8.63;;;;;;;6.63;51.18;98542.63;4992488;28;20068;-90
2023/03/15 02:56:18;;;;;;;17.55;10.50;;;;;;;6.63;51.40;98545.25;4992709;28;20105;-90
2023/03/15 02:58:44;;;;;;;13.98;9.85;;;;;;;7.30;50.97;98639.78;4992640;28;20034;-90
2023/03/15 03:01:14;;;;;;;12.20;10.25;;;;;;;7.33;50.77;98657.81;4992310;28;20027;-90
2023/03/15 03:03:41;;;;;;;15.45;10.10;;;;;;;7.34;50.96;98646.31;4992746;28;20033;-90
2023/03/15 03:06:07;;;;;;;13.38;9.80;;;;;;;7.33;50.98;98635.00;4991033;28;20026;-90
2023/03/15 03:08:33;;;;;;;12.32;9.55;;;;;;;7.38;51.11;98631.81;4992385;28;20503;-90
2023/03/15 03:10:58;;;;;;;16.33;11.20;;;;;;;7.02;51.01;98584.44;5007369;28;20029;-90
2023/03/15 03:13:24;;;;;;;13.32;10.02;;;;;;;6.67;50.75;98522.91;4992208;28;20523;-90
2023/03/15 03:15:57;;;;;;;13.98;10.07;;;;;;;6.85;50.85;98543.59;4992288;28;20570;-90
2023/03/15 03:18:34;;;;;;;14.65;10.57;;;;;;;6.94;51.09;98579.28;4992233;28;20018;-90
2023/03/15 03:21:04;;;;;;;14.35;10.43;;;;;;;6.98;51.38;98593.66;4992208;28;20061;-90
2023/03/15 03:23:30;;;;;;;13.82;10.10;;;;;;;7.09;51.41;98622.09;4992095;28;20027;-90
2023/03/15 03:25:57;;;;;;;12.38;10.35;;;;;;;6.47;51.24;98511.31;4992009;28;20411;-89
2023/03/15 03:28:25;;;;;;;13.82;10.88;;;;;;;7.30;51.70;98630.09;4992054;28;20033;-90
2023/03/15 03:30:52;;;;;;;16.23;11.50;;;;;;;7.30;51.33;98640.59;5007138;28;20022;-90
2023/03/15 03:33:18;;;;;;;15.73;10.20;;;;;;;6.60;51.58;98522.81;4992103;28;20042;-89
2023/03/15 03:35:44;;;;;;;16.40;10.18;;;;;;;7.11;51.78;98617.50;5007277;28;20026;-89
2023/03/15 03:38:10;;;;;;;18.45;10.30;;;;;;;6.35;52.03;98476.81;4992285;28;20029;-90
2023/03/15 03:40:37;;;;;;;15.65;10.10;;;;;;;7.25;51.94;98627.19;4992031;28;20090;-89
2023/03/15 03:43:03;;;;;;;20.35;10.55;;;;;;;6.67;51.86;98570.13;4991933;28;20028;-90
2023/03/15 03:45:28;;;;;;;16.50;9.40;;;;;;;6.93;51.89;98602.06;4992022;28;20097;-90
2023/03/15 03:47:54;;;;;;;14.65;10.05;;;;;;;6.87;51.83;98602.78;4992031;28;20028;-89
2023/03/15 03:50:20;;;;;;;13.27;9.57;;;;;;;6.42;52.40;98516.25;4990575;28;20520;-90
2023/03/15 03:52:45;;;;;;;13.68;10.55;;;;;;;6.57;52.24;98552.03;5009105;28;20041;-90
2023/03/15 03:55:14;;;;;;;14.18;10.15;;;;;;;7.14;52.52;98632.06;4995775;28;20053;-90
2023/03/15 03:57:40;;;;;;;12.38;10.73;;;;;;;6.41;52.41;98541.66;4996108;28;20093;-91
2023/03/15 04:00:07;;;;;;;14.50;10.02;;;;;;;6.62;52.39;98577.72;4995532;28;20039;-91
2023/03/15 04:02:33;;;;;;;13.63;10.63;;;;;;;6.96;52.88;98622.72;4995860;28;20519;-90
2023/03/15 04:04:58;;;;;;;12.95;10.32;;;;;;;6.75;52.71;98606.81;4995678;28;20033;-90
2023/03/15 04:07:24;;;;;;;16.70;11.75;;;;;;;6.68;53.10;98584.88;4995481;28;20033;-90
2023/03/15 04:09:49;;;;;;;15.13;12.30;;;;;;;6.52;53.01;98546.50;4995543;28;20085;-90
2023/03/15 04:12:15;;;;;;;14.32;10.98;;;;;;;6.71;52.26;98571.44;4995550;28;20026;-88
2023/03/15 04:14:40;;;;;;;19.20;12.88;;;;;;;6.31;51.99;98518.31;4995639;28;20105;-90
2023/03/15 04:17:07;;;;;;;19.92;13.75;;;;;;;5.81;51.80;98473.41;4995515;28;20028;-90
2023/03/15 04:19:33;;;;;;;18.67;13.05;;;;;;;6.51;51.94;98559.78;4995296;28;20049;-90
2023/03/15 04:21:58;;;;;;;17.70;12.50;;;;;;;6.37;52.06;98533.34;4995205;28;20054;-88
2023/03/15 04:24:23;;;;;;;18.42;12.68;;;;;;;6.11;52.44;98517.16;4995286;28;20022;-90
2023/03/15 04:26:49;;;;;;;18.77;12.70;;;;;;;6.64;52.11;98607.19;4995313;28;20018;-90
2023/03/15 04:29:14;;;;;;;18.70;14.45;;;;;;;6.45;52.27;98581.44;4994983;28;20022;-90
2023/03/15 04:31:41;;;;;;;17.58;12.15;;;;;;;6.74;52.71;98625.34;4995080;28;20030;-90
2023/03/15 04:34:07;;;;;;;17.13;14.50;;;;;;;6.35;52.43;98582.50;4995141;28;20018;-90
2023/03/15 04:36:33;;;;;;;19.88;15.90;;;;;;;5.98;52.36;98493.34;4995037;28;20404;-90
2023/03/15 04:39:05;;;;;;;20.95;14.82;;;;;;;6.08;51.88;98507.03;4993859;28;20023;-90
2023/03/15 04:41:33;;;;;;;20.88;15.40;;;;;;;6.34;51.74;98538.13;4994936;28;20029;-89
2023/03/15 04:43:59;;;;;;;17.58;14.95;;;;;;;6.16;52.18;98517.44;4994868;28;20081;-91
2023/03/15 04:46:25;;;;;;;19.60;14.48;;;;;;;6.78;51.88;98609.09;4994935;28;20474;-90
2023/03/15 04:48:50;;;;;;;20.33;13.18;;;;;;;6.47;51.99;98598.66;4994661;28;20030;-90
2023/03/15 04:51:15;;;;;;;21.60;14.90;;;;;;;6.56;52.09;98588.91;4994775;28;20069;-89
2023/03/15 04:53:41;;;;;;;19.23;14.52;;;;;;;6.13;52.59;98511.72;5009699;28;20030;-90
2023/03/15 04:56:06;;;;;;;22.85;16.10;;;;;;;5.70;52.53;98432.72;5009858;28;20388;-89
2023/03/15 04:58:32;;;;;;;20.73;15.63;;;;;;;6.40;52.33;98589.03;5009734;28;20026;-89
2023/03/15 05:00:57;;;;;;;29.90;21.05;;;;;;;6.01;52.05;98470.22;4994854;28;20031;-90
2023/03/15 05:03:22;;;;;;;23.40;16.65;;;;;;;6.79;52.42;98594.16;4993930;28;20026;-90
2023/03/15 05:05:48;;;;;;;25.38;18.92;;;;;;;6.06;52.75;98524.72;4994488;28;20022;-90
2023/03/15 05:08:13;;;;;;;23.33;19.35;;;;;;;6.00;52.31;98473.00;4994493;28;20648;-90
2023/03/15 05:10:39;;;;;;;27.50;20.33;;;;;;;6.56;52.13;98567.94;4994424;28;20035;-90
2023/03/15 05:13:04;;;;;;;26.92;22.30;;;;;;;6.31;52.02;98517.50;4994445;28;20113;-90
2023/03/15 05:15:29;;;;;;;26.42;20.83;;;;;;;6.60;52.38;98564.78;4994413;28;20030;-86
2023/03/15 05:17:55;;;;;;;22.38;17.20;;;;;;;6.91;52.00;98609.31;4994472;28;20057;-88
2023/03/15 05:20:21;;;;;;;20.27;14.63;;;;;;;6.43;52.40;98528.38;4994469;28;20060;-90
2023/03/15 05:22:47;;;;;;;18.50;14.25;;;;;;;6.46;52.33;98543.75;4994017;28;20022;-92
2023/03/15 05:25:14;;;;;;;19.75;14.75;;;;;;;6.12;53.01;98482.09;4992815;28;20045;-91
2023/03/15 05:27:40;;;;;;;19.23;15.90;;;;;;;6.50;52.60;98534.53;4994022;28;20034;-90
2023/03/15 05:30:06;;;;;;;20.70;17.08;;;;;;;6.96;52.33;98596.47;4994187;28;20101;-92
2023/03/15 05:32:38;;;;;;;20.90;14.43;;;;;;;6.83;52.40;98569.22;4994061;28;20408;-92
2023/03/15 05:35:05;;;;;;;19.90;12.90;;;;;;;6.80;52.51;98570.38;4994036;28;20038;-91
2023/03/15 05:37:31;;;;;;;17.00;12.55;;;;;;;6.44;52.72;98511.66;4994234;28;20030;-88
2023/03/15 05:39:57;;;;;;;15.95;13.05;;;;;;;7.03;52.47;98595.75;4992694;28;20415;-90
2023/03/15 05:42:26;;;;;;;21.38;14.68;;;;;;;6.91;52.84;98601.44;4994010;28;20483;-90
2023/03/15 05:44:56;;;;;;;23.27;14.32;;;;;;;5.14;53.14;98303.03;4992534;28;20034;-89
2023/03/15 05:47:21;;;;;;;18.13;14.00;;;;;;;6.48;53.22;98521.63;4993739;28;20491;-89
2023/03/15 05:49:47;;;;;;;24.63;15.55;;;;;;;6.81;52.82;98556.25;4993736;28;20084;-90
2023/03/15 05:52:13;;;;;;;19.17;16.60;;;;;;;6.82;53.14;98552.66;4993488;28;20114;-90
2023/03/15 05:54:38;;;;;;;23.13;16.25;;;;;;;6.61;52.59;98507.91;4992411;28;20042;-89
2023/03/15 05:57:04;;;;;;;24.05;15.40;;;;;;;7.17;52.39;98585.28;4993471;28;20030;-89
2023/03/15 05:59:30;;;;;;;23.30;17.17;;;;;;;6.08;52.32;98415.31;4993310;28;20189;-88
2023/03/15 06:01:55;;;;;;;35.75;22.65;;;;;;;6.96;52.70;98551.84;4993579;28;20561;-90
2023/03/15 06:04:21;;;;;;;34.40;25.10;;;;;;;7.31;52.41;98618.59;4993499;28;20022;-90
2023/03/15 06:06:47;;;;;;;33.83;23.55;;;;;;;6.87;52.69;98541.63;5008502;28;20053;-91
2023/03/15 06:09:12;;;;;;;28.00;23.30;;;;;;;6.51;52.80;98484.53;4993301;28;20492;-90
2023/03/15 06:11:38;;;;;;;29.50;21.17;;;;;;;6.55;52.81;98500.75;4988786;28;20038;-89
2023/03/15 06:14:03;;;;;;;28.02;22.48;;;;;;;6.67;52.52;98522.91;4973640;28;20026;-89
2023/03/15 06:16:28;;;;;;;28.15;21.98;;;;;;;6.82;53.11;98568.38;4972744;28;20042;-90
2023/03/15 06:18:54;;;;;;;32.40;23.65;;;;;;;6.61;53.23;98506.09;4973721;28;20035;-90
2023/03/15 06:21:19;;;;;;;28.88;23.33;;;;;;;6.56;52.80;98490.06;4975150;28;20038;-89
2023/03/15 06:23:45;;;;;;;27.58;21.15;;;;;;;6.76;52.78;98514.00;4973979;28;20523;-92
2023/03/15 06:26:10;;;;;;;28.30;20.85;;;;;;;6.75;53.05;98498.44;4973692;28;20504;-91
2023/03/15 06:28:36;;;;;;;28.67;21.38;;;;;;;6.22;52.58;98403.22;4973150;28;20027;-92
2023/03/15 06:31:09;;;;;;;31.75;21.67;;;;;;;6.72;52.78;98486.50;4972300;28;20050;-91
2023/03/15 06:33:34;;;;;;;29.50;21.25;;;;;;;7.38;53.26;98589.81;4980286;28;20069;-91
2023/03/15 06:36:00;;;;;;;29.35;22.10;;;;;;;7.11;52.94;98553.69;4973263;28;20058;-92
2023/03/15 06:38:25;;;;;;;31.85;21.80;;;;;;;7.03;52.69;98530.13;4988308;28;20393;-91
2023/03/15 06:40:50;;;;;;;28.70;22.00;;;;;;;6.68;52.52;98465.03;4973595;28;20468;-91
2023/03/15 06:43:19;;;;;;;32.80;25.05;;;;;;;6.93;52.44;98518.09;4988228;28;20459;-90
2023/03/15 06:45:45;;;;;;;26.58;21.83;;;;;;;6.94;52.69;98509.22;4973204;28;20500;-90
2023/03/15 06:48:13;;;;;;;32.88;24.50;;;;;;;7.27;52.68;98554.31;4972978;28;20027;-90
2023/03/15 06:50:38;;;;;;;27.65;22.63;;;;;;;7.04;52.19;98502.91;4972916;28;20459;-90
2023/03/15 06:53:04;;;;;;;33.03;23.30;;;;;;;7.64;52.07;98598.06;4972638;28;20039;-90
2023/03/15 06:55:29;;;;;;;31.58;23.00;;;;;;;7.30;51.73;98535.56;4990488;28;20026;-89
2023/03/15 06:57:57;;;;;;;30.02;22.02;;;;;;;7.13;51.94;98507.06;4989983;28;20419;-89
2023/03/15 07:00:23;;;;;;;29.80;22.70;;;;;;;7.19;52.41;98494.03;4975642;28;20523;-89
2023/03/15 07:02:48;;;;;;;32.58;23.48;;;;;;;7.65;52.20;98560.28;4992983;28;20146;-88
2023/03/15 07:05:14;;;;;;;35.08;26.80;;;;;;;7.57;51.78;98546.44;4987261;28;20034;-90
2023/03/15 07:07:40;;;;;;;35.00;26.10;;;;;;;7.69;51.42;98531.03;4972376;28;20133;-91
2023/03/15 07:10:06;;;;;;;30.88;22.60;;;;;;;8.09;51.70;98596.19;4976046;28;20073;-90
2023/03/15 07:12:31;;;;;;;28.75;21.88;;;;;;;8.08;51.88;98602.44;4973405;28;20045;-90
2023/03/15 07:14:57;;;;;;;27.83;19.15;;;;;;;7.98;51.08;98589.59;4972712;28;20027;-88
2023/03/15 07:17:22;;;;;;;28.70;19.95;;;;;;;7.69;51.21;98549.41;4987217;28;20026;-89
2023/03/15 07:19:48;;;;;;;31.25;21.02;;;;;;;8.03;51.59;98619.78;4971631;28;20510;-89
2023/03/15 07:22:13;;;;;;;28.20;17.60;;;;;;;7.63;51.79;98558.84;4972604;28;20431;-90
2023/03/15 07:24:39;;;;;;;24.75;18.73;;;;;;;7.42;51.80;98533.31;4971575;28;20047;-90
2023/03/15 07:27:05;;;;;;;28.15;17.92;;;;;;;6.01;52.26;98306.97;4969861;28;20026;-88
2023/03/15 07:29:30;;;;;;;31.83;18.50;;;;;;;7.58;52.21;98574.34;4970842;28;20571;-90
2023/03/15 07:31:56;;;;;;;21.70;16.27;;;;;;;7.81;52.70;98590.81;4970640;28;20428;-90
2023/03/15 07:34:21;;;;;;;18.83;14.32;;;;;;;7.76;52.37;98590.53;4987457;28;20031;-88
2023/03/15 07:36:46;;;;;;;22.95;14.75;;;;;;;7.77;52.46;98593.97;4971787;28;20058;-90
2023/03/15 07:39:12;;;;;;;18.10;14.82;;;;;;;7.11;53.29;98478.38;4971537;28;20023;-90
2023/03/15 07:41:37;;;;;;;19.02;14.00;;;;;;;7.63;52.17;98558.84;4971918;28;20562;-90
2023/03/15 07:44:03;;;;;;;21.98;14.35;;;;;;;7.29;52.95;98489.31;4972934;28;20037;-90
2023/03/15 07:46:29;;;;;;;17.58;13.23;;;;;;;7.31;52.10;98468.13;4972837;28;20101;-90
2023/03/15 07:48:55;;;;;;;16.75;12.85;;;;;;;7.78;52.33;98543.88;4970723;28;20102;-91
2023/03/15 07:51:20;;;;;;;17.20;12.20;;;;;;;7.31;52.29;98445.31;5002918;28;20190;-90
2023/03/15 07:53:46;;;;;;;20.73;13.77;;;;;;;7.95;51.80;98533.94;4971754;28;20039;-90
2023/03/15 07:56:11;;;;;;;20.25;14.75;;;;;;;7.72;52.21;98531.47;4986757;28;20031;-87
2023/03/15 07:58:36;;;;;;;17.65;13.60;;;;;;;7.67;51.75;98455.03;4971375;28;20023;-88
2023/03/15 08:01:02;;;;;;;16.73;11.65;;;;;;;7.72;51.71;98447.41;4971330;28;20603;-88
2023/03/15 08:03:27;;;;;;;16.40;12.43;;;;;;;8.66;51.33;98560.38;4971756;28;20031;-89
2023/03/15 08:05:53;;;;;;;18.85;12.52;;;;;;;7.98;51.06;98424.00;4970933;28;20031;-90
2023/03/15 08:08:19;;;;;;;17.35;12.32;;;;;;;8.01;50.95;98420.19;4972075;28;20095;-90
2023/03/15 08:10:45;;;;;;;15.27;11.05;;;;;;;8.42;51.04;98480.84;4986196;28;21013;-89
2023/03/15 08:13:11;;;;;;;18.75;13.30;;;;;;;8.68;50.62;98488.13;4986683;28;20419;-89
2023/03/15 08:15:36;;;;;;;18.77;13.30;;;;;;;8.45;50.59;98427.88;4973819;28;20033;-89
2023/03/15 08:18:02;;;;;;;16.95;13.23;;;;;;;8.75;50.52;98456.59;4970474;28;20030;-87
2023/03/15 08:20:28;;;;;;;20.10;15.73;;;;;;;7.32;50.35;98210.63;4968800;28;20109;-87
2023/03/15 08:22:53;;;;;;;20.73;16.65;;;;;;;9.42;49.85;98519.19;4969405;28;20106;-90
2023/03/15 08:25:22;;;;;;;20.85;14.90;;;;;;;8.75;49.52;98393.44;4962984;28;20177;-89
2023/03/15 08:27:48;;;;;;;19.23;15.02;;;;;;;9.22;49.35;98422.44;4970647;28;20041;-88
2023/03/15 08:30:15;;;;;;;17.25;12.50;;;;;;;10.08;48.99;98533.44;4971192;28;20485;-90
2023/03/15 08:32:42;;;;;;;25.70;17.63;;;;;;;10.07;48.61;98497.53;4971035;28;20042;-90
2023/03/15 08:35:08;;;;;;;17.85;13.90;;;;;;;10.36;48.72;98500.84;4971373;28;20026;-90
2023/03/15 08:37:34;;;;;;;21.77;17.40;;;;;;;10.59;48.35;98500.47;4987253;28;20026;-89
2023/03/15 08:40:08;;;;;;;23.13;17.42;;;;;;;10.54;48.13;98461.47;4971769;28;20041;-89
2023/03/15 08:42:36;;;;;;;15.63;14.02;;;;;;;9.94;47.55;98367.50;4986223;28;20663;-88
2023/03/15 08:45:07;;;;;;;16.10;12.57;;;;;;;10.49;47.29;98426.97;4971797;28;20037;-86
2023/03/15 08:47:36;;;;;;;16.38;13.27;;;;;;;11.02;47.20;98493.72;4970452;28;20031;-87
2023/03/15 08:50:11;;;;;;;18.13;15.98;;;;;;;11.05;47.55;98481.91;4972165;28;20030;-88
2023/03/15 08:52:36;;;;;;;13.90;11.50;;;;;;;10.78;47.11;98449.47;4969429;28;20508;-88
2023/03/15 08:55:03;;;;;;;16.02;11.43;;;;;;;9.98;47.30;98319.41;4973100;28;20030;-88
2023/03/15 08:57:31;;;;;;;18.10;12.05;;;;;;;10.28;47.36;98375.22;4979066;28;20027;-89
2023/03/15 08:59:58;;;;;;;18.83;11.98;;;;;;;9.92;47.75;98309.69;4972986;28;20490;-86
2023/03/15 09:02:23;;;;;;;17.65;12.73;;;;;;;10.26;47.19;98364.06;4973340;28;20054;-89
2023/03/15 09:04:49;;;;;;;14.18;12.52;;;;;;;10.94;47.29;98462.25;4974503;28;20037;-87
2023/03/15 09:07:14;;;;;;;13.23;9.50;;;;;;;10.54;47.46;98398.16;4975146;28;20030;-90
2023/03/15 09:09:40;;;;;;;11.82;9.95;;;;;;;10.68;46.90;98406.84;4970832;28;20053;-90
2023/03/15 09:12:06;;;;;;;12.18;10.10;;;;;;;10.79;47.15;98385.91;4974105;28;20541;-88
2023/03/15 09:14:32;;;;;;;12.43;9.80;;;;;;;10.86;46.52;98342.81;4974191;28;20033;-89
2023/03/15 09:16:57;;;;;;;11.50;9.77;;;;;;;11.65;46.35;98438.41;4988315;28;20736;-89
2023/03/15 09:19:22;;;;;;;11.98;8.82;;;;;;;11.80;45.69;98413.53;4974199;28;20504;-91
2023/03/15 09:21:48;;;;;;;14.25;9.60;;;;;;;11.65;44.82;98329.19;4974519;28;20042;-87
2023/03/15 09:24:13;;;;;;;12.63;9.55;;;;;;;12.27;44.56;98383.91;4972864;28;20842;-89
2023/03/15 09:26:39;;;;;;;12.00;9.50;;;;;;;12.05;44.28;98322.63;4970186;28;20046;-89
2023/03/15 09:29:07;;;;;;;13.63;8.18;;;;;;;12.90;44.20;98433.22;4972834;28;20097;-88
2023/03/15 09:31:33;;;;;;;13.65;9.80;;;;;;;12.60;43.59;98351.00;4971819;28;20027;-88
2023/03/15 09:33:58;;;;;;;11.98;8.75;;;;;;;12.40;43.62;98311.50;4989837;28;20034;-88
2023/03/15 09:36:24;;;;;;;14.20;9.73;;;;;;;12.23;43.62;98286.63;4973502;28;20065;-88
2023/03/15 09:38:49;;;;;;;10.25;8.20;;;;;;;13.06;43.45;98403.50;4972816;28;20049;-88
2023/03/15 09:41:40;;;;;;;11.82;8.15;;;;;;;13.20;43.03;98404.19;4970435;28;20019;-88
2023/03/15 09:44:11;;;;;;;11.05;8.35;;;;;;;13.31;43.29;98403.41;4971205;28;20038;-88
2023/03/15 09:46:52;;;;;;;9.60;7.70;;;;;;;13.16;43.01;98400.31;5004641;28;20039;-88
2023/03/15 09:49:44;;;;;;;10.52;8.35;;;;;;;13.37;42.70;98407.84;4977357;28;20340;-90
2023/03/15 09:52:21;;;;;;;14.70;7.03;;;;;;;12.61;43.17;98292.53;4969391;28;20026;-89
2023/03/15 09:55:05;;;;;;;9.95;7.40;;;;;;;12.98;43.10;98342.84;4968491;28;20149;-90
2023/03/15 09:57:54;;;;;;;12.95;7.53;;;;;;;13.50;42.62;98398.94;4988399;28;20479;-90
2023/03/15 10:00:34;;;;;;;26.02;20.88;;;;;;;13.14;43.05;98297.19;4977690;28;20042;-88
2023/03/15 10:03:05;;;;;;;13.88;9.60;;;;;;;14.13;42.17;98395.78;4975122;28;20058;-89
2023/03/15 10:05:41;;;;;;;11.50;9.07;;;;;;;13.85;41.75;98277.81;4970778;28;20066;-88
2023/03/15 10:08:16;;;;;;;10.43;8.35;;;;;;;14.19;41.15;98294.78;4974851;28;20340;-89
2023/03/15 10:11:22;;;;;;;10.43;6.97;;;;;;;14.90;40.39;98377.91;4972480;28;21356;-88
2023/03/15 10:14:18;;;;;;;10.98;7.18;;;;;;;14.95;40.41;98343.47;4971291;28;20022;-89
2023/03/15 10:16:49;;;;;;;12.43;8.45;;;;;;;15.40;40.16;98358.69;4961017;28;20092;-90
2023/03/15 10:19:24;;;;;;;10.75;8.27;;;;;;;15.52;39.51;98362.09;4969085;28;20026;-88
2023/03/15 10:22:00;;;;;;;9.18;7.00;;;;;;;15.42;39.07;98360.06;4969012;28;20031;-88
2023/03/15 10:24:31;;;;;;;10.00;8.18;;;;;;;15.55;39.34;98356.28;4969657;28;20115;-89
2023/03/15 10:27:05;;;;;;;12.98;7.40;;;;;;;15.49;38.99;98357.25;4969383;28;20046;-89
2023/03/15 10:29:31;;;;;;;10.55;7.43;;;;;;;14.85;39.54;98284.78;4969351;28;20034;-88
2023/03/15 10:31:57;;;;;;;9.40;7.53;;;;;;;14.95;39.39;98300.94;4970172;28;20431;-89
2023/03/15 10:34:24;;;;;;;11.10;7.10;;;;;;;14.82;39.45;98303.84;4968863;28;20118;-89
2023/03/15 10:36:54;;;;;;;8.60;7.68;;;;;;;14.17;39.38;98221.75;4969994;28;20495;-89
2023/03/15 10:39:20;;;;;;;13.57;6.68;;;;;;;14.67;39.40;98292.91;4970461;28;20558;-90
2023/03/15 10:41:49;;;;;;;9.35;6.57;;;;;;;14.18;38.69;98242.75;4970939;28;20026;-89
2023/03/15 10:44:24;;;;;;;9.07;6.55;;;;;;;14.65;37.62;98303.78;4979316;28;20018;-90
2023/03/15 10:47:16;;;;;;;6.47;4.88;;;;;;;14.56;37.71;98268.78;4969327;28;20041;-90
2023/03/15 10:49:43;;;;;;;11.07;7.07;;;;;;;13.67;36.83;98078.97;4985822;28;20034;-89
2023/03/15 10:52:34;;;;;;;5.45;3.72;;;;;;;15.27;35.29;98315.38;4972193;28;20101;-90
2023/03/15 10:55:05;;;;;;;5.53;3.47;;;;;;;15.48;35.56;98300.59;4970738;28;20027;-90
2023/03/15 10:57:38;;;;;;;4.15;3.15;;;;;;;14.88;34.97;98202.75;4970244;28;20027;-89
2023/03/15 11:00:19;;;;;;;7.30;4.35;;;;;;;15.46;34.69;98292.03;4970712;28;20043;-89
2023/03/15 11:03:01;;;;;;;7.80;3.97;;;;;;;15.16;34.05;98254.28;4960084;28;20125;-89
2023/03/15 11:05:48;;;;;;;5.10;3.45;;;;;;;14.63;33.64;98165.88;4975739;28;20023;-90
2023/03/15 11:08:19;;;;;;;4.15;2.97;;;;;;;15.10;34.39;98247.25;4971664;28;20030;-90
2023/03/15 11:10:56;;;;;;;2.83;1.70;;;;;;;15.29;32.61;98277.91;4975677;28;20558;-88
2023/03/15 11:13:28;;;;;;;3.25;2.15;;;;;;;14.76;32.05;98186.03;4979136;28;20039;-88
2023/03/15 11:16:02;;;;;;;4.78;1.92;;;;;;;15.34;31.46;98272.69;4972863;28;20516;-90
2023/03/15 11:18:41;;;;;;;3.97;2.30;;;;;;;15.42;31.45;98264.31;4972837;28;20094;-90
2023/03/15 11:21:13;;;;;;;3.55;1.55;;;;;;;15.49;30.54;98264.16;4972219;28;20021;-89
2023/03/15 11:23:42;;;;;;;2.55;1.67;;;;;;;15.17;30.13;98200.06;4975948;28;20058;-89
2023/03/15 11:26:16;;;;;;;4.57;2.00;;;;;;;15.61;30.53;98243.66;4970216;28;20514;-90
2023/03/15 11:28:46;;;;;;;4.72;1.83;;;;;;;14.96;30.31;98140.44;4972361;28;20019;-89
2023/03/15 11:31:12;;;;;;;3.25;2.20;;;;;;;14.93;30.05;98124.97;4985313;28;20019;-89
2023/03/15 11:33:47;;;;;;;5.60;4.00;;;;;;;15.61;30.42;98221.56;4972023;28;20473;-89